sensor_id;sensor_type;location;lat;lon;timestamp;P1;durP1;ratioP1;P2;durP2;ratioP2
5456;SDS011;2751;49.802;9.944;2022-08-19T00:00:49;25.03;;;22.37;;
5456;SDS011;2751;49.802;9.944;2022-08-19T00:03:16;24.37;;;21.87;;
5456;SDS011;2751;49.802;9.944;2022-08-19T00:05:45;23.27;;;20.77;;
5456;SDS011;2751;49.802;9.944;2022-08-19T00:08:12;24.70;;;22.10;;
5456;SDS011;2751;49.802;9.944;2022-08-19T00:10:39;25.63;;;22.77;;
5456;SDS011;2751;49.802;9.944;2022-08-19T00:13:06;26.73;;;22.87;;
5456;SDS011;2751;49.802;9.944;2022-08-19T00:15:32;24.63;;;22.03;;
5456;SDS011;2751;49.802;9.944;2022-08-19T00:17:59;25.03;;;22.43;;
5456;SDS011;2751;49.802;9.944;2022-08-19T00:20:26;23.90;;;20.63;;
5456;SDS011;2751;49.802;9.944;2022-08-19T00:22:55;22.57;;;20.20;;
5456;SDS011;2751;49.802;9.944;2022-08-19T00:25:22;24.90;;;21.20;;
5456;SDS011;2751;49.802;9.944;2022-08-19T00:27:49;24.30;;;21.17;;
5456;SDS011;2751;49.802;9.944;2022-08-19T00:30:16;25.37;;;21.47;;
5456;SDS011;2751;49.802;9.944;2022-08-19T00:32:43;25.13;;;21.90;;
5456;SDS011;2751;49.802;9.944;2022-08-19T00:35:10;23.20;;;20.20;;
5456;SDS011;2751;49.802;9.944;2022-08-19T00:37:37;26.10;;;20.97;;
5456;SDS011;2751;49.802;9.944;2022-08-19T00:40:11;30.50;;;20.67;;
5456;SDS011;2751;49.802;9.944;2022-08-19T00:42:38;27.03;;;20.90;;
5456;SDS011;2751;49.802;9.944;2022-08-19T00:45:08;24.30;;;21.70;;
5456;SDS011;2751;49.802;9.944;2022-08-19T00:47:37;27.00;;;21.43;;
5456;SDS011;2751;49.802;9.944;2022-08-19T00:50:05;23.00;;;20.53;;
5456;SDS011;2751;49.802;9.944;2022-08-19T00:52:35;23.47;;;19.90;;
5456;SDS011;2751;49.802;9.944;2022-08-19T00:55:08;26.83;;;20.30;;
5456;SDS011;2751;49.802;9.944;2022-08-19T00:57:40;23.63;;;20.27;;
5456;SDS011;2751;49.802;9.944;2022-08-19T01:00:12;23.27;;;20.00;;
5456;SDS011;2751;49.802;9.944;2022-08-19T01:02:41;24.87;;;20.23;;
5456;SDS011;2751;49.802;9.944;2022-08-19T01:05:10;24.40;;;19.87;;
5456;SDS011;2751;49.802;9.944;2022-08-19T01:07:40;26.97;;;21.00;;
5456;SDS011;2751;49.802;9.944;2022-08-19T01:10:09;24.70;;;21.20;;
5456;SDS011;2751;49.802;9.944;2022-08-19T01:12:38;22.17;;;19.80;;
5456;SDS011;2751;49.802;9.944;2022-08-19T01:15:07;21.43;;;18.83;;
5456;SDS011;2751;49.802;9.944;2022-08-19T01:17:36;22.33;;;19.70;;
5456;SDS011;2751;49.802;9.944;2022-08-19T01:20:06;22.77;;;20.00;;
5456;SDS011;2751;49.802;9.944;2022-08-19T01:22:38;22.77;;;20.37;;
5456;SDS011;2751;49.802;9.944;2022-08-19T01:25:09;24.63;;;20.53;;
5456;SDS011;2751;49.802;9.944;2022-08-19T01:27:37;26.07;;;21.80;;
5456;SDS011;2751;49.802;9.944;2022-08-19T01:30:05;22.77;;;18.17;;
5456;SDS011;2751;49.802;9.944;2022-08-19T01:32:33;23.90;;;19.93;;
5456;SDS011;2751;49.802;9.944;2022-08-19T01:35:01;23.10;;;19.27;;
5456;SDS011;2751;49.802;9.944;2022-08-19T01:37:29;22.30;;;18.47;;
5456;SDS011;2751;49.802;9.944;2022-08-19T01:40:09;23.50;;;20.53;;
5456;SDS011;2751;49.802;9.944;2022-08-19T01:42:36;23.83;;;20.73;;
5456;SDS011;2751;49.802;9.944;2022-08-19T01:45:04;23.90;;;20.07;;
5456;SDS011;2751;49.802;9.944;2022-08-19T01:47:33;24.90;;;18.43;;
5456;SDS011;2751;49.802;9.944;2022-08-19T01:50:00;24.60;;;19.40;;
5456;SDS011;2751;49.802;9.944;2022-08-19T01:52:27;21.27;;;18.97;;
5456;SDS011;2751;49.802;9.944;2022-08-19T01:54:54;24.07;;;20.00;;
5456;SDS011;2751;49.802;9.944;2022-08-19T01:57:22;23.07;;;19.53;;
5456;SDS011;2751;49.802;9.944;2022-08-19T01:59:49;22.57;;;20.07;;
5456;SDS011;2751;49.802;9.944;2022-08-19T02:02:16;20.63;;;18.50;;
5456;SDS011;2751;49.802;9.944;2022-08-19T02:04:43;23.10;;;19.13;;
5456;SDS011;2751;49.802;9.944;2022-08-19T02:07:10;24.60;;;19.57;;
5456;SDS011;2751;49.802;9.944;2022-08-19T02:09:37;23.63;;;19.53;;
5456;SDS011;2751;49.802;9.944;2022-08-19T02:12:04;21.50;;;18.03;;
5456;SDS011;2751;49.802;9.944;2022-08-19T02:14:35;24.20;;;19.40;;
5456;SDS011;2751;49.802;9.944;2022-08-19T02:17:02;20.93;;;18.73;;
5456;SDS011;2751;49.802;9.944;2022-08-19T02:19:29;22.00;;;18.93;;
5456;SDS011;2751;49.802;9.944;2022-08-19T02:21:57;20.57;;;18.43;;
5456;SDS011;2751;49.802;9.944;2022-08-19T02:24:24;22.50;;;18.63;;
5456;SDS011;2751;49.802;9.944;2022-08-19T02:26:52;20.93;;;18.70;;
5456;SDS011;2751;49.802;9.944;2022-08-19T02:29:19;26.33;;;19.70;;
5456;SDS011;2751;49.802;9.944;2022-08-19T02:31:47;23.67;;;20.57;;
5456;SDS011;2751;49.802;9.944;2022-08-19T02:34:15;22.93;;;19.47;;
5456;SDS011;2751;49.802;9.944;2022-08-19T02:36:42;24.97;;;20.10;;
5456;SDS011;2751;49.802;9.944;2022-08-19T02:39:09;22.40;;;18.70;;
5456;SDS011;2751;49.802;9.944;2022-08-19T02:41:35;22.67;;;19.57;;
5456;SDS011;2751;49.802;9.944;2022-08-19T02:44:02;23.10;;;19.30;;
5456;SDS011;2751;49.802;9.944;2022-08-19T02:46:31;21.10;;;18.37;;
5456;SDS011;2751;49.802;9.944;2022-08-19T02:49:01;23.80;;;19.20;;
5456;SDS011;2751;49.802;9.944;2022-08-19T02:51:31;21.70;;;19.33;;
5456;SDS011;2751;49.802;9.944;2022-08-19T02:53:58;19.87;;;17.60;;
5456;SDS011;2751;49.802;9.944;2022-08-19T02:56:26;23.23;;;18.90;;
5456;SDS011;2751;49.802;9.944;2022-08-19T02:58:53;21.90;;;19.13;;
5456;SDS011;2751;49.802;9.944;2022-08-19T03:01:21;25.47;;;19.07;;
5456;SDS011;2751;49.802;9.944;2022-08-19T03:03:49;22.97;;;18.63;;
5456;SDS011;2751;49.802;9.944;2022-08-19T03:06:18;21.23;;;18.60;;
5456;SDS011;2751;49.802;9.944;2022-08-19T03:08:46;23.70;;;20.17;;
5456;SDS011;2751;49.802;9.944;2022-08-19T03:11:15;20.73;;;18.53;;
5456;SDS011;2751;49.802;9.944;2022-08-19T03:13:43;21.13;;;18.83;;
5456;SDS011;2751;49.802;9.944;2022-08-19T03:16:11;20.70;;;18.50;;
5456;SDS011;2751;49.802;9.944;2022-08-19T03:18:38;21.57;;;19.07;;
5456;SDS011;2751;49.802;9.944;2022-08-19T03:21:05;21.30;;;17.47;;
5456;SDS011;2751;49.802;9.944;2022-08-19T03:23:34;23.57;;;19.80;;
5456;SDS011;2751;49.802;9.944;2022-08-19T03:26:03;23.10;;;19.20;;
5456;SDS011;2751;49.802;9.944;2022-08-19T03:28:31;20.63;;;18.33;;
5456;SDS011;2751;49.802;9.944;2022-08-19T03:30:59;20.43;;;18.40;;
5456;SDS011;2751;49.802;9.944;2022-08-19T03:33:28;21.17;;;18.60;;
5456;SDS011;2751;49.802;9.944;2022-08-19T03:35:59;23.67;;;18.80;;
5456;SDS011;2751;49.802;9.944;2022-08-19T03:38:35;21.37;;;19.17;;
5456;SDS011;2751;49.802;9.944;2022-08-19T03:41:04;23.40;;;19.90;;
5456;SDS011;2751;49.802;9.944;2022-08-19T03:43:33;21.47;;;18.13;;
5456;SDS011;2751;49.802;9.944;2022-08-19T03:46:02;26.63;;;17.17;;
5456;SDS011;2751;49.802;9.944;2022-08-19T03:48:31;24.73;;;19.83;;
5456;SDS011;2751;49.802;9.944;2022-08-19T03:50:58;22.03;;;19.37;;
5456;SDS011;2751;49.802;9.944;2022-08-19T03:53:25;20.40;;;18.30;;
5456;SDS011;2751;49.802;9.944;2022-08-19T03:55:54;23.77;;;18.90;;
5456;SDS011;2751;49.802;9.944;2022-08-19T03:58:21;21.17;;;18.53;;
5456;SDS011;2751;49.802;9.944;2022-08-19T04:00:49;21.90;;;18.20;;
5456;SDS011;2751;49.802;9.944;2022-08-19T04:03:16;20.70;;;18.53;;
5456;SDS011;2751;49.802;9.944;2022-08-19T04:05:43;23.37;;;19.03;;
5456;SDS011;2751;49.802;9.944;2022-08-19T04:08:12;20.83;;;18.67;;
5456;SDS011;2751;49.802;9.944;2022-08-19T04:10:43;22.03;;;19.50;;
5456;SDS011;2751;49.802;9.944;2022-08-19T04:13:11;24.50;;;19.03;;
5456;SDS011;2751;49.802;9.944;2022-08-19T04:15:39;19.47;;;17.47;;
5456;SDS011;2751;49.802;9.944;2022-08-19T04:18:07;22.40;;;19.60;;
5456;SDS011;2751;49.802;9.944;2022-08-19T04:20:38;23.30;;;19.80;;
5456;SDS011;2751;49.802;9.944;2022-08-19T04:23:06;20.43;;;18.10;;
5456;SDS011;2751;49.802;9.944;2022-08-19T04:25:37;20.07;;;18.07;;
5456;SDS011;2751;49.802;9.944;2022-08-19T04:28:05;22.07;;;19.70;;
5456;SDS011;2751;49.802;9.944;2022-08-19T04:30:39;22.70;;;18.53;;
5456;SDS011;2751;49.802;9.944;2022-08-19T04:33:08;26.80;;;21.50;;
5456;SDS011;2751;49.802;9.944;2022-08-19T04:35:36;21.77;;;17.97;;
5456;SDS011;2751;49.802;9.944;2022-08-19T04:38:04;24.87;;;19.43;;
5456;SDS011;2751;49.802;9.944;2022-08-19T04:40:31;23.37;;;19.63;;
5456;SDS011;2751;49.802;9.944;2022-08-19T04:43:15;22.10;;;19.77;;
5456;SDS011;2751;49.802;9.944;2022-08-19T04:45:44;21.73;;;18.70;;
5456;SDS011;2751;49.802;9.944;2022-08-19T04:48:12;24.47;;;18.53;;
5456;SDS011;2751;49.802;9.944;2022-08-19T04:50:40;24.70;;;19.90;;
5456;SDS011;2751;49.802;9.944;2022-08-19T04:53:09;28.33;;;19.23;;
5456;SDS011;2751;49.802;9.944;2022-08-19T04:55:38;21.50;;;19.17;;
5456;SDS011;2751;49.802;9.944;2022-08-19T04:58:07;25.20;;;18.00;;
5456;SDS011;2751;49.802;9.944;2022-08-19T05:00:33;27.20;;;18.80;;
5456;SDS011;2751;49.802;9.944;2022-08-19T05:03:04;21.33;;;18.97;;
5456;SDS011;2751;49.802;9.944;2022-08-19T05:05:32;19.00;;;16.87;;
5456;SDS011;2751;49.802;9.944;2022-08-19T05:07:59;21.10;;;17.90;;
5456;SDS011;2751;49.802;9.944;2022-08-19T05:10:26;23.50;;;18.60;;
5456;SDS011;2751;49.802;9.944;2022-08-19T05:12:53;21.27;;;17.80;;
5456;SDS011;2751;49.802;9.944;2022-08-19T05:15:19;23.90;;;18.37;;
5456;SDS011;2751;49.802;9.944;2022-08-19T05:17:46;19.47;;;16.70;;
5456;SDS011;2751;49.802;9.944;2022-08-19T05:20:28;20.77;;;17.20;;
5456;SDS011;2751;49.802;9.944;2022-08-19T05:23:13;17.80;;;15.13;;
5456;SDS011;2751;49.802;9.944;2022-08-19T05:25:40;19.37;;;16.23;;
5456;SDS011;2751;49.802;9.944;2022-08-19T05:28:07;17.97;;;16.07;;
5456;SDS011;2751;49.802;9.944;2022-08-19T05:30:34;19.17;;;17.10;;
5456;SDS011;2751;49.802;9.944;2022-08-19T05:33:01;18.40;;;16.60;;
5456;SDS011;2751;49.802;9.944;2022-08-19T05:35:30;17.83;;;16.00;;
5456;SDS011;2751;49.802;9.944;2022-08-19T05:37:57;18.97;;;17.00;;
5456;SDS011;2751;49.802;9.944;2022-08-19T05:40:23;17.70;;;15.87;;
5456;SDS011;2751;49.802;9.944;2022-08-19T05:42:50;18.47;;;16.57;;
5456;SDS011;2751;49.802;9.944;2022-08-19T05:45:18;23.23;;;17.17;;
5456;SDS011;2751;49.802;9.944;2022-08-19T05:47:46;17.87;;;15.87;;
5456;SDS011;2751;49.802;9.944;2022-08-19T05:50:14;19.33;;;16.77;;
5456;SDS011;2751;49.802;9.944;2022-08-19T05:52:43;20.50;;;18.50;;
5456;SDS011;2751;49.802;9.944;2022-08-19T05:55:10;20.20;;;16.10;;
5456;SDS011;2751;49.802;9.944;2022-08-19T05:57:38;17.70;;;15.40;;
5456;SDS011;2751;49.802;9.944;2022-08-19T06:00:06;18.23;;;16.30;;
5456;SDS011;2751;49.802;9.944;2022-08-19T06:02:35;18.20;;;16.27;;
5456;SDS011;2751;49.802;9.944;2022-08-19T06:05:02;18.13;;;16.20;;
5456;SDS011;2751;49.802;9.944;2022-08-19T06:07:31;22.77;;;15.60;;
5456;SDS011;2751;49.802;9.944;2022-08-19T06:10:00;17.73;;;15.83;;
5456;SDS011;2751;49.802;9.944;2022-08-19T06:12:27;17.87;;;16.10;;
5456;SDS011;2751;49.802;9.944;2022-08-19T06:14:56;16.27;;;14.30;;
5456;SDS011;2751;49.802;9.944;2022-08-19T06:17:23;20.93;;;15.77;;
5456;SDS011;2751;49.802;9.944;2022-08-19T06:19:51;19.00;;;16.80;;
5456;SDS011;2751;49.802;9.944;2022-08-19T06:22:18;15.77;;;14.00;;
5456;SDS011;2751;49.802;9.944;2022-08-19T06:24:45;15.97;;;13.93;;
5456;SDS011;2751;49.802;9.944;2022-08-19T06:27:14;16.93;;;15.33;;
5456;SDS011;2751;49.802;9.944;2022-08-19T06:29:41;16.60;;;15.10;;
5456;SDS011;2751;49.802;9.944;2022-08-19T06:32:08;16.67;;;14.80;;
5456;SDS011;2751;49.802;9.944;2022-08-19T06:34:36;16.07;;;14.47;;
5456;SDS011;2751;49.802;9.944;2022-08-19T06:37:03;16.17;;;14.50;;
5456;SDS011;2751;49.802;9.944;2022-08-19T06:39:31;15.60;;;14.00;;
5456;SDS011;2751;49.802;9.944;2022-08-19T06:42:00;17.07;;;15.47;;
5456;SDS011;2751;49.802;9.944;2022-08-19T06:44:33;16.77;;;14.27;;
5456;SDS011;2751;49.802;9.944;2022-08-19T06:47:02;16.30;;;14.23;;
5456;SDS011;2751;49.802;9.944;2022-08-19T06:49:31;15.80;;;14.10;;
5456;SDS011;2751;49.802;9.944;2022-08-19T06:51:58;18.83;;;15.30;;
5456;SDS011;2751;49.802;9.944;2022-08-19T06:54:26;14.30;;;12.80;;
5456;SDS011;2751;49.802;9.944;2022-08-19T06:56:54;17.43;;;15.17;;
5456;SDS011;2751;49.802;9.944;2022-08-19T06:59:22;15.10;;;13.60;;
5456;SDS011;2751;49.802;9.944;2022-08-19T07:01:54;16.67;;;14.87;;
5456;SDS011;2751;49.802;9.944;2022-08-19T07:04:22;15.43;;;13.73;;
5456;SDS011;2751;49.802;9.944;2022-08-19T07:06:56;15.53;;;13.93;;
5456;SDS011;2751;49.802;9.944;2022-08-19T07:09:24;18.73;;;14.70;;
5456;SDS011;2751;49.802;9.944;2022-08-19T07:11:52;14.37;;;13.07;;
5456;SDS011;2751;49.802;9.944;2022-08-19T07:14:21;14.57;;;13.10;;
5456;SDS011;2751;49.802;9.944;2022-08-19T07:16:50;13.93;;;12.73;;
5456;SDS011;2751;49.802;9.944;2022-08-19T07:19:21;14.70;;;13.20;;
5456;SDS011;2751;49.802;9.944;2022-08-19T07:21:50;16.80;;;15.30;;
5456;SDS011;2751;49.802;9.944;2022-08-19T07:24:18;14.37;;;12.93;;
5456;SDS011;2751;49.802;9.944;2022-08-19T07:26:45;15.90;;;13.10;;
5456;SDS011;2751;49.802;9.944;2022-08-19T07:29:12;13.33;;;12.03;;
5456;SDS011;2751;49.802;9.944;2022-08-19T07:31:39;14.90;;;13.60;;
5456;SDS011;2751;49.802;9.944;2022-08-19T07:34:08;14.53;;;13.23;;
5456;SDS011;2751;49.802;9.944;2022-08-19T07:36:40;15.27;;;13.77;;
5456;SDS011;2751;49.802;9.944;2022-08-19T07:39:09;14.37;;;12.90;;
5456;SDS011;2751;49.802;9.944;2022-08-19T07:41:39;15.47;;;13.83;;
5456;SDS011;2751;49.802;9.944;2022-08-19T07:44:06;14.10;;;12.80;;
5456;SDS011;2751;49.802;9.944;2022-08-19T07:46:35;15.40;;;13.90;;
5456;SDS011;2751;49.802;9.944;2022-08-19T07:49:05;14.10;;;12.27;;
5456;SDS011;2751;49.802;9.944;2022-08-19T07:51:33;14.80;;;13.40;;
5456;SDS011;2751;49.802;9.944;2022-08-19T07:54:02;16.27;;;13.30;;
5456;SDS011;2751;49.802;9.944;2022-08-19T07:56:30;14.97;;;13.37;;
5456;SDS011;2751;49.802;9.944;2022-08-19T07:58:57;15.20;;;12.70;;
5456;SDS011;2751;49.802;9.944;2022-08-19T08:01:25;14.77;;;13.33;;
5456;SDS011;2751;49.802;9.944;2022-08-19T08:03:53;13.93;;;12.60;;
5456;SDS011;2751;49.802;9.944;2022-08-19T08:06:39;15.33;;;13.53;;
5456;SDS011;2751;49.802;9.944;2022-08-19T08:09:26;13.73;;;12.33;;
5456;SDS011;2751;49.802;9.944;2022-08-19T08:11:55;14.33;;;13.03;;
5456;SDS011;2751;49.802;9.944;2022-08-19T08:14:25;14.70;;;13.00;;
5456;SDS011;2751;49.802;9.944;2022-08-19T08:16:53;16.57;;;12.77;;
5456;SDS011;2751;49.802;9.944;2022-08-19T08:19:22;14.60;;;13.17;;
5456;SDS011;2751;49.802;9.944;2022-08-19T08:21:51;14.60;;;13.30;;
5456;SDS011;2751;49.802;9.944;2022-08-19T08:24:19;12.77;;;11.60;;
5456;SDS011;2751;49.802;9.944;2022-08-19T08:26:47;14.53;;;11.97;;
5456;SDS011;2751;49.802;9.944;2022-08-19T08:29:14;16.37;;;14.83;;
5456;SDS011;2751;49.802;9.944;2022-08-19T08:31:42;14.93;;;13.50;;
5456;SDS011;2751;49.802;9.944;2022-08-19T08:34:10;15.03;;;13.50;;
5456;SDS011;2751;49.802;9.944;2022-08-19T08:36:38;14.17;;;12.87;;
5456;SDS011;2751;49.802;9.944;2022-08-19T08:39:07;16.00;;;11.90;;
5456;SDS011;2751;49.802;9.944;2022-08-19T08:41:35;14.27;;;12.73;;
5456;SDS011;2751;49.802;9.944;2022-08-19T08:44:10;14.80;;;13.50;;
5456;SDS011;2751;49.802;9.944;2022-08-19T08:46:41;13.50;;;11.70;;
5456;SDS011;2751;49.802;9.944;2022-08-19T08:49:16;13.70;;;12.20;;
5456;SDS011;2751;49.802;9.944;2022-08-19T08:51:51;12.93;;;11.60;;
5456;SDS011;2751;49.802;9.944;2022-08-19T08:54:25;13.70;;;12.23;;
5456;SDS011;2751;49.802;9.944;2022-08-19T08:56:56;20.60;;;18.40;;
5456;SDS011;2751;49.802;9.944;2022-08-19T08:59:26;13.03;;;11.83;;
5456;SDS011;2751;49.802;9.944;2022-08-19T09:01:57;12.60;;;11.60;;
5456;SDS011;2751;49.802;9.944;2022-08-19T09:04:24;12.70;;;11.60;;
5456;SDS011;2751;49.802;9.944;2022-08-19T09:06:54;12.30;;;11.20;;
5456;SDS011;2751;49.802;9.944;2022-08-19T09:09:30;12.00;;;11.00;;
5456;SDS011;2751;49.802;9.944;2022-08-19T09:12:03;13.40;;;12.10;;
5456;SDS011;2751;49.802;9.944;2022-08-19T09:14:39;12.40;;;11.20;;
5456;SDS011;2751;49.802;9.944;2022-08-19T09:17:11;13.53;;;12.23;;
5456;SDS011;2751;49.802;9.944;2022-08-19T09:19:46;13.87;;;11.73;;
5456;SDS011;2751;49.802;9.944;2022-08-19T09:22:16;13.27;;;10.70;;
5456;SDS011;2751;49.802;9.944;2022-08-19T09:24:46;12.23;;;10.70;;
5456;SDS011;2751;49.802;9.944;2022-08-19T09:27:13;13.10;;;11.43;;
5456;SDS011;2751;49.802;9.944;2022-08-19T09:29:42;17.47;;;11.37;;
5456;SDS011;2751;49.802;9.944;2022-08-19T09:32:09;12.60;;;11.50;;
5456;SDS011;2751;49.802;9.944;2022-08-19T09:34:36;12.17;;;10.90;;
5456;SDS011;2751;49.802;9.944;2022-08-19T09:37:03;11.60;;;10.60;;
5456;SDS011;2751;49.802;9.944;2022-08-19T09:39:31;13.63;;;11.40;;
5456;SDS011;2751;49.802;9.944;2022-08-19T09:41:58;12.03;;;10.93;;
5456;SDS011;2751;49.802;9.944;2022-08-19T09:44:25;12.00;;;10.80;;
5456;SDS011;2751;49.802;9.944;2022-08-19T09:46:53;13.47;;;12.27;;
5456;SDS011;2751;49.802;9.944;2022-08-19T09:49:21;11.93;;;11.00;;
5456;SDS011;2751;49.802;9.944;2022-08-19T09:51:49;12.13;;;10.80;;
5456;SDS011;2751;49.802;9.944;2022-08-19T09:54:21;12.80;;;11.23;;
5456;SDS011;2751;49.802;9.944;2022-08-19T09:56:48;12.40;;;11.20;;
5456;SDS011;2751;49.802;9.944;2022-08-19T09:59:15;9.53;;;8.63;;
5456;SDS011;2751;49.802;9.944;2022-08-19T10:01:43;9.83;;;8.83;;
5456;SDS011;2751;49.802;9.944;2022-08-19T10:04:11;14.30;;;8.40;;
5456;SDS011;2751;49.802;9.944;2022-08-19T10:06:38;8.70;;;7.87;;
5456;SDS011;2751;49.802;9.944;2022-08-19T10:09:07;9.57;;;8.30;;
5456;SDS011;2751;49.802;9.944;2022-08-19T10:11:36;8.97;;;8.23;;
5456;SDS011;2751;49.802;9.944;2022-08-19T10:14:06;8.90;;;8.10;;
5456;SDS011;2751;49.802;9.944;2022-08-19T10:16:33;10.63;;;9.53;;
5456;SDS011;2751;49.802;9.944;2022-08-19T10:19:04;8.33;;;7.63;;
5456;SDS011;2751;49.802;9.944;2022-08-19T10:21:32;8.77;;;7.90;;
5456;SDS011;2751;49.802;9.944;2022-08-19T10:24:00;9.23;;;7.63;;
5456;SDS011;2751;49.802;9.944;2022-08-19T10:26:31;7.80;;;7.00;;
5456;SDS011;2751;49.802;9.944;2022-08-19T10:28:59;9.70;;;7.30;;
5456;SDS011;2751;49.802;9.944;2022-08-19T10:31:27;9.07;;;6.30;;
5456;SDS011;2751;49.802;9.944;2022-08-19T10:33:55;8.20;;;6.50;;
5456;SDS011;2751;49.802;9.944;2022-08-19T10:36:25;7.83;;;6.00;;
5456;SDS011;2751;49.802;9.944;2022-08-19T10:38:55;6.40;;;5.90;;
5456;SDS011;2751;49.802;9.944;2022-08-19T10:41:24;6.67;;;6.07;;
5456;SDS011;2751;49.802;9.944;2022-08-19T10:43:53;8.10;;;7.30;;
5456;SDS011;2751;49.802;9.944;2022-08-19T10:46:22;8.03;;;5.77;;
5456;SDS011;2751;49.802;9.944;2022-08-19T10:48:51;6.07;;;4.90;;
5456;SDS011;2751;49.802;9.944;2022-08-19T10:51:18;5.97;;;5.40;;
5456;SDS011;2751;49.802;9.944;2022-08-19T10:54:04;5.17;;;4.77;;
5456;SDS011;2751;49.802;9.944;2022-08-19T10:56:33;5.40;;;5.00;;
5456;SDS011;2751;49.802;9.944;2022-08-19T10:59:19;5.57;;;5.07;;
5456;SDS011;2751;49.802;9.944;2022-08-19T11:01:47;5.00;;;4.60;;
5456;SDS011;2751;49.802;9.944;2022-08-19T11:04:15;4.60;;;4.20;;
5456;SDS011;2751;49.802;9.944;2022-08-19T11:06:43;4.47;;;4.17;;
5456;SDS011;2751;49.802;9.944;2022-08-19T11:09:14;4.73;;;4.33;;
5456;SDS011;2751;49.802;9.944;2022-08-19T11:11:42;4.20;;;3.90;;
5456;SDS011;2751;49.802;9.944;2022-08-19T11:14:09;4.67;;;4.37;;
5456;SDS011;2751;49.802;9.944;2022-08-19T11:16:39;4.67;;;4.37;;
5456;SDS011;2751;49.802;9.944;2022-08-19T11:19:07;4.20;;;3.90;;
5456;SDS011;2751;49.802;9.944;2022-08-19T11:21:35;4.83;;;4.40;;
5456;SDS011;2751;49.802;9.944;2022-08-19T11:24:06;5.23;;;4.90;;
5456;SDS011;2751;49.802;9.944;2022-08-19T11:26:36;3.73;;;3.50;;
5456;SDS011;2751;49.802;9.944;2022-08-19T11:29:04;5.27;;;3.93;;
5456;SDS011;2751;49.802;9.944;2022-08-19T11:31:36;4.30;;;4.10;;
5456;SDS011;2751;49.802;9.944;2022-08-19T11:34:05;6.53;;;4.37;;
5456;SDS011;2751;49.802;9.944;2022-08-19T11:36:36;4.83;;;4.53;;
5456;SDS011;2751;49.802;9.944;2022-08-19T11:39:04;4.87;;;4.53;;
5456;SDS011;2751;49.802;9.944;2022-08-19T11:41:32;4.47;;;4.07;;
5456;SDS011;2751;49.802;9.944;2022-08-19T11:44:01;5.70;;;4.20;;
5456;SDS011;2751;49.802;9.944;2022-08-19T11:46:29;4.67;;;4.13;;
5456;SDS011;2751;49.802;9.944;2022-08-19T11:48:57;4.87;;;4.47;;
5456;SDS011;2751;49.802;9.944;2022-08-19T11:51:26;4.43;;;3.97;;
5456;SDS011;2751;49.802;9.944;2022-08-19T11:53:54;4.17;;;3.87;;
5456;SDS011;2751;49.802;9.944;2022-08-19T11:56:22;4.30;;;3.90;;
5456;SDS011;2751;49.802;9.944;2022-08-19T11:58:50;4.03;;;3.73;;
5456;SDS011;2751;49.802;9.944;2022-08-19T12:01:20;8.93;;;3.63;;
5456;SDS011;2751;49.802;9.944;2022-08-19T12:03:48;4.20;;;3.80;;
5456;SDS011;2751;49.802;9.944;2022-08-19T12:06:19;4.67;;;3.63;;
5456;SDS011;2751;49.802;9.944;2022-08-19T12:08:51;3.97;;;3.20;;
5456;SDS011;2751;49.802;9.944;2022-08-19T12:11:18;6.43;;;3.63;;
5456;SDS011;2751;49.802;9.944;2022-08-19T12:13:46;6.63;;;5.70;;
5456;SDS011;2751;49.802;9.944;2022-08-19T12:16:14;5.30;;;4.90;;
5456;SDS011;2751;49.802;9.944;2022-08-19T12:18:43;4.07;;;3.77;;
5456;SDS011;2751;49.802;9.944;2022-08-19T12:21:11;4.10;;;3.60;;
5456;SDS011;2751;49.802;9.944;2022-08-19T12:23:38;8.30;;;7.50;;
5456;SDS011;2751;49.802;9.944;2022-08-19T12:26:05;3.77;;;3.50;;
5456;SDS011;2751;49.802;9.944;2022-08-19T12:28:33;3.70;;;3.40;;
5456;SDS011;2751;49.802;9.944;2022-08-19T12:31:01;3.50;;;3.30;;
5456;SDS011;2751;49.802;9.944;2022-08-19T12:33:28;4.03;;;3.63;;
5456;SDS011;2751;49.802;9.944;2022-08-19T12:35:59;4.30;;;4.00;;
5456;SDS011;2751;49.802;9.944;2022-08-19T12:38:28;4.13;;;3.83;;
5456;SDS011;2751;49.802;9.944;2022-08-19T12:40:54;3.83;;;3.63;;
5456;SDS011;2751;49.802;9.944;2022-08-19T12:43:21;3.60;;;3.50;;
5456;SDS011;2751;49.802;9.944;2022-08-19T12:45:48;7.17;;;5.93;;
5456;SDS011;2751;49.802;9.944;2022-08-19T12:48:15;3.70;;;3.50;;
5456;SDS011;2751;49.802;9.944;2022-08-19T12:50:43;3.70;;;3.50;;
5456;SDS011;2751;49.802;9.944;2022-08-19T12:53:13;4.10;;;3.70;;
5456;SDS011;2751;49.802;9.944;2022-08-19T12:55:41;6.87;;;3.77;;
5456;SDS011;2751;49.802;9.944;2022-08-19T12:58:08;3.80;;;3.50;;
5456;SDS011;2751;49.802;9.944;2022-08-19T13:00:37;5.47;;;3.20;;
5456;SDS011;2751;49.802;9.944;2022-08-19T13:03:05;5.03;;;3.87;;
5456;SDS011;2751;49.802;9.944;2022-08-19T13:05:33;3.77;;;3.50;;
5456;SDS011;2751;49.802;9.944;2022-08-19T13:08:00;3.53;;;3.33;;
5456;SDS011;2751;49.802;9.944;2022-08-19T13:10:29;3.10;;;2.90;;
5456;SDS011;2751;49.802;9.944;2022-08-19T13:13:00;2.87;;;2.77;;
5456;SDS011;2751;49.802;9.944;2022-08-19T13:15:28;4.67;;;3.50;;
5456;SDS011;2751;49.802;9.944;2022-08-19T13:17:56;2.87;;;2.67;;
5456;SDS011;2751;49.802;9.944;2022-08-19T13:20:24;3.07;;;2.87;;
5456;SDS011;2751;49.802;9.944;2022-08-19T13:22:52;2.97;;;2.77;;
5456;SDS011;2751;49.802;9.944;2022-08-19T13:25:18;2.77;;;2.60;;
5456;SDS011;2751;49.802;9.944;2022-08-19T13:27:48;3.20;;;2.90;;
5456;SDS011;2751;49.802;9.944;2022-08-19T13:30:16;8.03;;;7.20;;
5456;SDS011;2751;49.802;9.944;2022-08-19T13:33:03;4.50;;;3.73;;
5456;SDS011;2751;49.802;9.944;2022-08-19T13:35:40;5.90;;;2.93;;
5456;SDS011;2751;49.802;9.944;2022-08-19T13:38:09;2.63;;;2.53;;
5456;SDS011;2751;49.802;9.944;2022-08-19T13:40:36;3.10;;;2.87;;
5456;SDS011;2751;49.802;9.944;2022-08-19T13:43:05;3.97;;;3.27;;
5456;SDS011;2751;49.802;9.944;2022-08-19T13:45:33;3.03;;;2.73;;
5456;SDS011;2751;49.802;9.944;2022-08-19T13:48:00;4.60;;;4.20;;
5456;SDS011;2751;49.802;9.944;2022-08-19T13:50:32;3.00;;;2.80;;
5456;SDS011;2751;49.802;9.944;2022-08-19T13:52:59;2.90;;;2.80;;
5456;SDS011;2751;49.802;9.944;2022-08-19T13:55:27;4.60;;;2.90;;
5456;SDS011;2751;49.802;9.944;2022-08-19T13:57:55;8.47;;;6.20;;
5456;SDS011;2751;49.802;9.944;2022-08-19T14:00:25;3.93;;;3.20;;
5456;SDS011;2751;49.802;9.944;2022-08-19T14:02:54;2.60;;;2.50;;
5456;SDS011;2751;49.802;9.944;2022-08-19T14:05:22;7.40;;;2.80;;
5456;SDS011;2751;49.802;9.944;2022-08-19T14:07:51;3.67;;;3.40;;
5456;SDS011;2751;49.802;9.944;2022-08-19T14:10:18;5.43;;;3.23;;
5456;SDS011;2751;49.802;9.944;2022-08-19T14:12:46;3.10;;;2.90;;
5456;SDS011;2751;49.802;9.944;2022-08-19T14:15:13;6.70;;;6.13;;
5456;SDS011;2751;49.802;9.944;2022-08-19T14:17:43;3.83;;;3.53;;
5456;SDS011;2751;49.802;9.944;2022-08-19T14:20:11;3.63;;;2.70;;
5456;SDS011;2751;49.802;9.944;2022-08-19T14:22:40;3.37;;;2.20;;
5456;SDS011;2751;49.802;9.944;2022-08-19T14:25:16;2.60;;;2.50;;
5456;SDS011;2751;49.802;9.944;2022-08-19T14:27:45;7.13;;;3.90;;
5456;SDS011;2751;49.802;9.944;2022-08-19T14:30:13;3.00;;;2.80;;
5456;SDS011;2751;49.802;9.944;2022-08-19T14:32:43;2.73;;;2.53;;
5456;SDS011;2751;49.802;9.944;2022-08-19T14:35:10;3.37;;;3.17;;
5456;SDS011;2751;49.802;9.944;2022-08-19T14:37:39;4.40;;;3.40;;
5456;SDS011;2751;49.802;9.944;2022-08-19T14:40:07;2.57;;;2.47;;
5456;SDS011;2751;49.802;9.944;2022-08-19T14:42:35;2.67;;;2.40;;
5456;SDS011;2751;49.802;9.944;2022-08-19T14:45:02;2.73;;;2.53;;
5456;SDS011;2751;49.802;9.944;2022-08-19T14:47:31;6.27;;;5.70;;
5456;SDS011;2751;49.802;9.944;2022-08-19T14:49:59;3.10;;;2.90;;
5456;SDS011;2751;49.802;9.944;2022-08-19T14:52:26;5.00;;;4.50;;
5456;SDS011;2751;49.802;9.944;2022-08-19T14:54:53;2.40;;;2.30;;
5456;SDS011;2751;49.802;9.944;2022-08-19T14:57:20;2.80;;;2.47;;
5456;SDS011;2751;49.802;9.944;2022-08-19T14:59:47;3.90;;;3.60;;
5456;SDS011;2751;49.802;9.944;2022-08-19T15:02:14;2.20;;;2.10;;
5456;SDS011;2751;49.802;9.944;2022-08-19T15:04:41;2.77;;;2.60;;
5456;SDS011;2751;49.802;9.944;2022-08-19T15:07:10;3.10;;;2.90;;